Time;durP1;ratioP1;P1;durP2;ratioP2;P2;SDS_P1;SDS_P2;PMS_P1;PMS_P2;Temp;Humidity;BMP_temperature;BMP_pressure;BME280_temperature;BME280_humidity;BME280_pressure;Samples;Min_cycle;Max_cycle;Signal;HPM_P1;HPM_P2
2022/02/27 00:01:22;;;;;;;;;7.67;6.33;;;;;9.26;47.80;101897.34;6314915;22;45638;-87
2022/02/27 00:03:48;;;;;;;;;13.33;9.00;;;;;9.30;48.22;101909.88;6315101;22;45373;-87
2022/02/27 00:06:13;;;;;;;;;6.33;6.33;;;;;9.19;48.21;101890.00;6316579;22;45325;-87
2022/02/27 00:08:39;;;;;;;;;10.33;9.33;;;;;9.15;49.08;101896.00;6314787;22;47313;-87
2022/02/27 00:11:09;;;;;;;;;9.00;8.33;;;;;9.25;48.58;101874.31;6315985;22;45873;-87
2022/02/27 00:13:35;;;;;;;;;7.33;7.33;;;;;9.23;48.22;101907.84;6313812;22;45366;-87
2022/02/27 00:16:01;;;;;;;;;6.00;6.00;;;;;9.25;48.85;101921.16;6314627;22;45327;-87
2022/02/27 00:18:33;;;;;;;;;6.33;6.00;;;;;9.46;49.65;101932.59;6318592;22;46971;-87
2022/02/27 00:21:00;;;;;;;;;9.00;9.00;;;;;9.19;49.22;101874.97;6318451;22;45279;-87
2022/02/27 00:23:28;;;;;;;;;13.00;11.00;;;;;9.00;49.04;101881.31;6320766;22;45384;-87
2022/02/27 00:25:53;;;;;;;;;7.33;7.33;;;;;9.13;48.34;101916.28;6319405;22;45329;-87
2022/02/27 00:28:19;;;;;;;;;6.00;6.00;;;;;9.16;47.92;101921.72;6316908;22;45984;-87
2022/02/27 00:30:44;;;;;;;;;10.33;9.33;;;;;9.20;50.24;101929.84;6340690;22;45905;-86
2022/02/27 00:36:35;;;;;;;;;12.33;9.33;;;;;9.37;49.43;101905.69;6320145;22;45342;-86
2022/02/27 00:39:00;;;;;;;;;9.00;9.00;;;;;8.97;50.14;101872.34;6317697;22;47945;-86
2022/02/27 00:41:26;;;;;;;;;7.33;7.33;;;;;8.91;49.51;101857.09;6289782;22;45405;-86
2022/02/27 00:43:52;;;;;;;;;10.33;6.00;;;;;8.95;48.70;101869.63;6314751;22;45827;-86
2022/02/27 00:46:18;;;;;;;;;9.33;7.67;;;;;8.87;48.52;101852.50;6313301;22;45458;-87
2022/02/27 00:48:45;;;;;;;;;6.00;6.00;;;;;8.96;49.22;101883.78;6316877;22;46314;-87
2022/02/27 00:51:10;;;;;;;;;10.00;8.33;;;;;9.12;49.62;101906.53;6314302;22;45396;-87
2022/02/27 00:53:36;;;;;;;;;8.67;6.00;;;;;9.07;50.44;101910.72;6315591;22;45361;-87
2022/02/27 00:56:01;;;;;;;;;11.33;9.67;;;;;8.85;49.14;101878.09;6317080;22;45778;-87
2022/02/27 00:58:28;;;;;;;;;9.00;8.33;;;;;9.19;50.52;101911.25;6318769;22;46863;-88
2022/02/27 01:00:59;;;;;;;;;9.67;8.67;;;;;9.14;49.64;101923.41;6319997;22;45844;-87
2022/02/27 01:03:30;;;;;;;;;10.00;7.33;;;;;8.99;49.85;101871.56;6321087;22;45222;-87
2022/02/27 01:05:56;;;;;;;;;9.00;6.67;;;;;9.09;49.00;101922.31;6321354;22;45422;-86
2022/02/27 01:08:25;;;;;;;;;9.00;9.00;;;;;9.02;48.99;101907.91;6319794;22;46040;-87
2022/02/27 01:10:56;;;;;;;;;9.67;6.67;;;;;8.96;49.71;101897.97;6320506;22;45341;-87
2022/02/27 01:13:32;;;;;;;;;9.00;7.33;;;;;9.27;49.49;101923.06;6316157;22;45376;-87
2022/02/27 01:16:01;;;;;;;;;11.00;9.67;;;;;9.04;49.02;101916.84;6315549;22;45789;-87
2022/02/27 01:18:27;;;;;;;;;8.33;7.33;;;;;8.98;49.59;101908.63;6316448;22;46093;-87
2022/02/27 01:20:52;;;;;;;;;10.00;7.33;;;;;8.66;48.10;101860.50;6315653;22;45232;-86
2022/02/27 01:23:20;;;;;;;;;10.33;8.00;;;;;8.82;48.44;101888.56;6314761;22;45289;-86
2022/02/27 01:25:46;;;;;;;;;7.00;6.00;;;;;8.66;47.84;101854.31;6314225;22;45757;-86
2022/02/27 01:29:01;;;;;;;;;6.00;6.00;;;;;9.29;48.07;101896.53;6315926;22;45478;-87
2022/02/27 01:31:34;;;;;;;;;8.00;7.00;;;;;8.94;48.55;101907.59;6308357;22;45364;-87
2022/02/27 01:34:00;;;;;;;;;8.33;5.33;;;;;8.90;49.06;101896.81;6281931;22;45387;-87
2022/02/27 01:36:25;;;;;;;;;8.00;8.00;;;;;8.84;48.28;101900.13;6281975;22;45449;-87
2022/02/27 01:38:51;;;;;;;;;12.00;9.00;;;;;8.86;49.04;101894.88;6281901;22;46966;-87
2022/02/27 01:41:28;;;;;;;;;8.67;8.67;;;;;9.14;49.53;101894.22;6283687;22;45382;-88
2022/02/27 01:43:54;;;;;;;;;8.67;8.33;;;;;8.87;49.21;101892.31;6283721;22;45259;-88
2022/02/27 01:46:19;;;;;;;;;8.33;8.33;;;;;8.84;48.14;101892.16;6288377;22;45340;-86
2022/02/27 01:48:45;;;;;;;;;6.33;6.00;;;;;8.79;49.28;101877.84;6286107;22;46819;-86
2022/02/27 01:51:14;;;;;;;;;7.33;7.33;;;;;8.95;48.29;101880.25;6286266;22;45320;-86
2022/02/27 01:53:41;;;;;;;;;8.67;6.67;;;;;8.60;48.36;101860.28;6288080;22;45455;-86
2022/02/27 01:56:07;;;;;;;;;6.00;6.00;;;;;8.72;49.19;101881.06;6288574;22;45287;-85
2022/02/27 01:58:33;;;;;;;;;8.00;7.33;;;;;8.74;49.24;101895.31;6284251;22;47159;-86
2022/02/27 02:01:00;;;;;;;;;4.33;3.67;;;;;8.74;48.98;101890.00;6286805;22;45286;-87
2022/02/27 02:03:28;;;;;;;;;10.00;6.67;;;;;8.59;49.30;101867.31;6312176;22;45162;-87
2022/02/27 02:05:53;;;;;;;;;6.00;6.00;;;;;8.63;48.67;101894.88;6285088;22;45286;-87
2022/02/27 02:08:19;;;;;;;;;13.67;10.00;;;;;8.73;49.30;101901.47;6283681;22;47129;-87
2022/02/27 02:10:45;;;;;;;;;9.00;9.00;;;;;8.48;48.80;101871.28;6285634;22;45353;-87
2022/02/27 02:13:11;;;;;;;;;8.67;8.67;;;;;8.42;49.81;101844.53;6283978;22;45389;-87
2022/02/27 02:15:37;;;;;;;;;7.33;6.00;;;;;8.30;49.34;101833.38;6284228;22;45283;-87
2022/02/27 02:18:09;;;;;;;;;7.33;7.33;;;;;8.83;49.48;101890.38;6283248;22;47385;-87
2022/02/27 02:20:36;;;;;;;;;7.67;7.67;;;;;8.34;49.26;101836.25;6285696;22;45843;-87
2022/02/27 02:23:03;;;;;;;;;8.67;8.67;;;;;8.50;49.39;101864.28;6283239;22;45427;-87
2022/02/27 02:25:29;;;;;;;;;6.00;6.00;;;;;8.32;49.23;101837.00;6284484;22;45289;-87
2022/02/27 02:27:58;;;;;;;;;4.00;4.00;;;;;8.49;49.53;101856.31;6283310;22;48031;-87
2022/02/27 02:30:26;;;;;;;;;5.00;4.00;;;;;8.52;49.34;101862.59;6303741;22;45437;-87
2022/02/27 02:32:58;;;;;;;;;6.00;5.00;;;;;8.70;50.10;101835.03;6318610;22;45165;-86
2022/02/27 02:35:27;;;;;;;;;9.67;9.00;;;;;8.67;50.05;101834.91;6321250;22;45340;-88
2022/02/27 02:37:54;;;;;;;;;6.00;5.00;;;;;8.48;48.72;101855.38;6319595;22;45461;-87
2022/02/27 02:40:22;;;;;;;;;6.67;6.67;;;;;8.69;49.46;101852.69;6320537;22;45415;-87
2022/02/27 02:42:47;;;;;;;;;5.67;5.00;;;;;8.43;51.36;101838.41;6319181;22;45144;-87
2022/02/27 02:45:14;;;;;;;;;8.33;7.33;;;;;8.57;50.57;101850.47;6319766;22;45323;-87
2022/02/27 02:47:44;;;;;;;;;8.00;8.00;;;;;8.55;49.60;101827.38;6319886;22;45291;-86
2022/02/27 02:50:12;;;;;;;;;10.33;6.00;;;;;8.48;50.90;101847.41;6321037;22;45289;-86
2022/02/27 02:52:37;;;;;;;;;6.67;6.00;;;;;8.49;49.83;101867.81;6322035;22;45208;-87
2022/02/27 02:55:09;;;;;;;;;6.00;5.00;;;;;8.50;49.89;101829.81;6319821;22;45369;-88
2022/02/27 02:57:37;;;;;;;;;10.00;8.00;;;;;8.43;49.31;101861.34;6319412;22;47024;-88
2022/02/27 03:00:08;;;;;;;;;10.67;7.33;;;;;8.54;49.39;101860.97;6318715;22;45294;-88
2022/02/27 03:02:34;;;;;;;;;6.33;5.00;;;;;8.33;50.53;101854.72;6319453;22;45245;-87
2022/02/27 03:05:00;;;;;;;;;9.67;7.33;;;;;8.20;50.20;101837.41;6320715;22;45373;-87
2022/02/27 03:07:26;;;;;;;;;8.67;8.67;;;;;8.32;49.82;101840.59;6320308;22;47863;-86
2022/02/27 03:09:51;;;;;;;;;10.67;8.33;;;;;8.30;50.92;101847.56;6295277;22;44749;-87
2022/02/27 03:12:17;;;;;;;;;9.00;9.00;;;;;8.17;49.31;101821.41;6320754;22;45494;-87
2022/02/27 03:14:43;;;;;;;;;9.33;8.00;;;;;8.37;50.76;101856.66;6319655;22;45103;-88
2022/02/27 03:17:08;;;;;;;;;7.33;6.00;;;;;8.39;49.94;101854.97;6317125;22;46135;-88
2022/02/27 03:19:34;;;;;;;;;9.00;9.00;;;;;8.31;50.46;101845.81;6315448;22;45385;-86
2022/02/27 03:22:00;;;;;;;;;6.00;6.00;;;;;8.25;49.34;101838.50;6318191;22;45878;-87
2022/02/27 03:24:25;;;;;;;;;9.33;5.00;;;;;8.17;50.42;101821.41;6319327;22;45440;-87
2022/02/27 03:26:51;;;;;;;;;8.00;8.00;;;;;8.32;49.86;101852.91;6320235;22;46819;-86
2022/02/27 03:29:17;;;;;;;;;7.33;7.33;;;;;8.32;48.90;101861.78;6293718;22;45313;-87
2022/02/27 03:31:44;;;;;;;;;8.00;8.00;;;;;8.32;49.76;101823.75;6324112;22;45658;-87
2022/02/27 03:34:09;;;;;;;;;7.67;6.00;;;;;8.34;50.14;101851.22;6322870;22;45217;-87
2022/02/27 03:36:35;;;;;;;;;6.00;6.00;;;;;8.06;49.33;101820.03;6322613;22;46824;-87
2022/02/27 03:39:01;;;;;;;;;5.00;5.00;;;;;8.35;50.30;101855.69;6325195;22;45274;-87
2022/02/27 03:41:26;;;;;;;;;9.33;8.00;;;;;8.16;50.13;101840.78;6349679;22;45348;-87
2022/02/27 03:43:52;;;;;;;;;7.00;5.00;;;;;8.03;49.10;101828.75;6324474;22;45429;-88
2022/02/27 03:46:19;;;;;;;;;7.00;5.33;;;;;8.15;49.52;101844.28;6324753;22;46891;-86
2022/02/27 03:48:48;;;;;;;;;6.00;6.00;;;;;8.42;48.99;101865.72;6324700;22;45887;-88
2022/02/27 03:51:13;;;;;;;;;6.00;4.67;;;;;7.94;49.69;101808.09;6325159;22;45879;-87
2022/02/27 03:53:42;;;;;;;;;8.33;5.33;;;;;8.26;51.35;101842.06;6325263;22;45337;-87
2022/02/27 03:56:08;;;;;;;;;5.67;5.67;;;;;7.89;49.52;101829.94;6324382;22;47839;-86
2022/02/27 03:58:33;;;;;;;;;1.00;1.00;;;;;8.14;50.32;101867.22;6351571;22;45266;-87
2022/02/27 04:00:59;;;;;;;;;6.67;4.00;;;;;8.16;50.36;101878.78;6324443;22;45301;-88
2022/02/27 04:03:24;;;;;;;;;8.00;5.00;;;;;8.05;49.10;101858.88;6323055;22;45334;-87
2022/02/27 04:05:50;;;;;;;;;8.33;8.00;;;;;7.99;50.36;101834.78;6324370;22;47077;-87
2022/02/27 04:08:16;;;;;;;;;5.00;4.33;;;;;7.91;49.01;101845.03;6322598;22;45657;-87
2022/02/27 04:10:42;;;;;;;;;6.00;5.33;;;;;8.05;49.72;101868.56;6323283;22;45380;-88
2022/02/27 04:13:07;;;;;;;;;4.67;4.33;;;;;7.89;49.74;101862.63;6322891;22;45317;-88
2022/02/27 04:15:33;;;;;;;;;3.33;3.33;;;;;7.83;50.24;101857.06;6322754;22;47448;-87
2022/02/27 04:17:58;;;;;;;;;6.67;5.67;;;;;7.73;49.36;101850.44;6349822;22;45708;-88
2022/02/27 04:20:24;;;;;;;;;4.67;4.00;;;;;7.59;49.66;101823.41;6351664;22;44722;-87
2022/02/27 04:22:50;;;;;;;;;6.00;6.00;;;;;7.60;49.60;101842.81;6323950;22;45521;-87
2022/02/27 04:25:16;;;;;;;;;5.67;4.67;;;;;7.78;49.84;101872.75;6324144;22;48132;-87
2022/02/27 04:27:41;;;;;;;;;6.00;5.00;;;;;7.68;50.28;101852.00;6351527;22;45419;-87
2022/02/27 04:30:07;;;;;;;;;12.00;5.00;;;;;7.74;49.68;101860.22;6350371;22;45368;-87
2022/02/27 04:32:34;;;;;;;;;6.67;6.00;;;;;7.89;50.30;101851.13;6325982;22;45297;-87
2022/02/27 04:35:01;;;;;;;;;5.33;5.33;;;;;7.58;49.87;101841.84;6353857;22;46272;-87
2022/02/27 04:37:26;;;;;;;;;5.67;4.33;;;;;7.70;50.56;101860.91;6325433;22;45464;-87
2022/02/27 04:39:52;;;;;;;;;6.00;6.00;;;;;7.48;50.64;101832.59;6323995;22;45352;-86
2022/02/27 04:42:17;;;;;;;;;5.00;5.00;;;;;7.60;50.67;101848.13;6351306;22;45324;-87
2022/02/27 04:44:43;;;;;;;;;5.33;5.33;;;;;7.47;51.38;101820.19;6350292;22;45419;-87
2022/02/27 04:47:09;;;;;;;;;5.00;5.00;;;;;7.55;50.44;101828.47;6352970;22;45459;-88
2022/02/27 04:49:36;;;;;;;;;5.33;5.00;;;;;7.51;50.70;101837.13;6353329;22;45748;-86
2022/02/27 04:52:02;;;;;;;;;9.00;6.00;;;;;7.47;50.27;101824.59;6324159;22;45388;-87
2022/02/27 04:54:28;;;;;;;;;8.67;5.67;;;;;7.57;50.42;101850.63;6323835;22;46731;-87
2022/02/27 04:56:53;;;;;;;;;6.00;6.00;;;;;7.50;50.15;101837.97;6322390;22;45269;-87
2022/02/27 04:59:21;;;;;;;;;12.67;12.00;;;;;7.42;50.76;101827.03;6351196;22;45245;-86
2022/02/27 05:01:47;;;;;;;;;5.67;4.67;;;;;7.60;50.81;101864.00;6324055;22;45942;-86
2022/02/27 05:04:12;;;;;;;;;9.67;6.00;;;;;7.52;50.30;101860.13;6325198;22;46956;-86
2022/02/27 05:06:41;;;;;;;;;6.00;6.00;;;;;7.76;50.37;101866.47;6324625;22;45375;-88
2022/02/27 05:09:07;;;;;;;;;4.67;4.33;;;;;7.51;50.55;101860.94;6352533;22;45394;-88
2022/02/27 05:11:33;;;;;;;;;5.00;4.00;;;;;7.56;51.37;101857.66;6324366;22;45099;-87
2022/02/27 05:13:58;;;;;;;;;2.67;2.67;;;;;7.49;49.96;101857.31;6351979;22;45308;-87
2022/02/27 05:16:24;;;;;;;;;2.00;2.00;;;;;7.27;50.13;101824.63;6324888;22;45098;-88
2022/02/27 05:18:50;;;;;;;;;8.00;6.00;;;;;7.28;50.21;101817.59;6323900;22;45462;-87
2022/02/27 05:21:15;;;;;;;;;5.67;5.67;;;;;7.43;50.98;101847.34;6352270;22;45392;-87
2022/02/27 05:23:41;;;;;;;;;5.00;2.67;;;;;7.36;51.00;101840.91;6323392;22;46653;-86
2022/02/27 05:26:09;;;;;;;;;2.00;2.00;;;;;7.61;50.05;101845.56;6347554;22;45365;-87
2022/02/27 05:28:34;;;;;;;;;6.67;4.33;;;;;7.40;51.03;101845.47;6324194;22;45274;-87
2022/02/27 05:31:00;;;;;;;;;5.33;5.33;;;;;7.45;50.51;101850.97;6318691;22;45311;-86
2022/02/27 05:33:26;;;;;;;;;4.00;4.00;;;;;7.40;50.48;101841.94;6345504;22;47664;-86
2022/02/27 05:35:51;;;;;;;;;5.33;5.00;;;;;7.40;50.26;101845.47;6321493;22;45313;-87
2022/02/27 05:38:17;;;;;;;;;4.00;4.00;;;;;7.45;51.11;101840.38;6320982;22;45290;-87
2022/02/27 05:40:42;;;;;;;;;4.67;4.00;;;;;7.08;50.71;101771.72;6347064;22;45290;-87
2022/02/27 05:43:10;;;;;;;;;4.33;4.33;;;;;7.43;52.23;101812.06;6346935;22;47709;-87
2022/02/27 05:45:36;;;;;;;;;7.33;6.00;;;;;7.43;52.43;101838.53;6322196;22;44815;-88
2022/02/27 05:48:02;;;;;;;;;6.00;5.33;;;;;7.56;51.41;101835.59;6323161;22;44699;-87
2022/02/27 05:50:27;;;;;;;;;4.00;4.00;;;;;7.30;52.16;101811.50;6323083;22;45144;-87
2022/02/27 05:52:54;;;;;;;;;4.50;4.50;;;;;7.45;51.21;101799.78;6319068;22;46867;-87
2022/02/27 05:55:20;;;;;;;;;6.00;5.00;;;;;7.37;49.79;101823.25;6346059;22;45300;-87
2022/02/27 05:57:45;;;;;;;;;6.67;6.67;;;;;7.26;51.03;101813.97;6318333;22;45406;-86
2022/02/27 06:00:11;;;;;;;;;4.33;4.00;;;;;7.37;50.87;101829.50;6315395;22;45678;-87
2022/02/27 06:02:37;;;;;;;;;5.00;5.00;;;;;7.36;51.55;101837.34;6314481;22;46573;-86
2022/02/27 06:08:25;;;;;;;;;10.00;5.67;;;;;7.46;51.06;101830.72;6316102;22;45383;-87
2022/02/27 06:10:51;;;;;;;;;6.00;5.00;;;;;7.31;50.67;101845.09;6316153;22;45210;-88
2022/02/27 06:13:16;;;;;;;;;4.00;4.00;;;;;7.18;50.49;101825.09;6321606;22;46982;-87
2022/02/27 06:15:42;;;;;;;;;6.67;4.33;;;;;7.26;50.51;101830.72;6322453;22;45310;-87
2022/02/27 06:18:07;;;;;;;;;10.33;8.00;;;;;7.25;51.06;101836.88;6319947;22;45322;-87
2022/02/27 06:24:03;;;;;;;;;7.33;5.00;;;;;7.17;50.78;101825.94;6320894;22;46098;-86
2022/02/27 06:26:30;;;;;;;;;8.67;7.33;;;;;7.13;50.63;101831.00;6319238;22;45380;-87
2022/02/27 06:28:55;;;;;;;;;8.00;7.33;;;;;7.13;50.25;101838.94;6314607;22;45343;-87
2022/02/27 06:31:21;;;;;;;;;4.00;4.00;;;;;7.10;51.79;101829.13;6292060;22;45443;-87
2022/02/27 06:34:33;;;;;;;;;5.00;5.00;;;;;7.52;51.77;101833.66;6285460;22;47011;-87
2022/02/27 06:36:58;;;;;;;;;2.67;2.67;;;;;7.10;50.89;101828.22;6258059;22;45326;-88
2022/02/27 06:39:24;;;;;;;;;5.00;5.00;;;;;7.19;50.90;101849.81;6286738;22;45293;-87
2022/02/27 06:41:49;;;;;;;;;5.33;4.67;;;;;7.03;50.21;101815.53;6259686;22;45319;-87
2022/02/27 06:44:15;;;;;;;;;2.00;2.00;;;;;7.09;50.71;101832.63;6285730;22;45346;-88
2022/02/27 06:46:41;;;;;;;;;5.00;5.00;;;;;7.15;51.37;101847.84;6286622;22;45326;-87
2022/02/27 06:49:08;;;;;;;;;3.33;2.67;;;;;7.30;50.66;101842.38;6286442;22;45536;-87
2022/02/27 06:51:33;;;;;;;;;1.00;1.00;;;;;7.14;50.27;101838.13;6260123;22;44994;-87
2022/02/27 06:53:59;;;;;;;;;5.33;5.33;;;;;7.06;50.41;101826.28;6258789;22;46932;-87
2022/02/27 06:56:25;;;;;;;;;5.00;4.67;;;;;7.16;51.88;101839.09;6288671;22;45442;-88
2022/02/27 06:58:54;;;;;;;;;5.67;5.00;;;;;6.92;50.81;101807.13;6262265;22;45869;-87
2022/02/27 07:01:21;;;;;;;;;2.67;2.67;;;;;7.03;51.29;101813.84;6262889;22;45761;-88
2022/02/27 07:03:48;;;;;;;;;4.00;4.00;;;;;7.18;51.20;101837.41;6237280;22;47975;-87
2022/02/27 07:06:18;;;;;;;;;8.00;5.00;;;;;7.30;49.94;101811.50;6262388;22;45541;-87
2022/02/27 07:08:43;;;;;;;;;4.00;4.00;;;;;7.06;51.12;101821.00;6260737;22;45711;-88
2022/02/27 07:11:09;;;;;;;;;5.00;4.00;;;;;7.23;49.83;101838.56;6261961;22;45377;-86
2022/02/27 07:13:46;;;;;;;;;5.00;4.67;;;;;7.58;49.71;101840.09;6291060;22;45473;-87
2022/02/27 07:16:15;;;;;;;;;5.00;4.33;;;;;7.41;49.70;101836.72;6290625;22;45433;-87
2022/02/27 07:18:43;;;;;;;;;4.00;4.00;;;;;7.29;49.91;101845.84;6263517;22;45319;-86
2022/02/27 07:21:09;;;;;;;;;7.33;6.67;;;;;7.01;50.42;101800.53;6264994;22;44771;-87
2022/02/27 07:23:37;;;;;;;;;6.67;4.67;;;;;7.56;50.96;101835.59;6290184;22;46630;-87
2022/02/27 07:26:02;;;;;;;;;1.33;1.33;;;;;7.35;49.76;101836.47;6292655;22;45586;-87
2022/02/27 07:28:28;;;;;;;;;4.00;4.00;;;;;7.13;49.78;101788.69;6263709;22;45315;-87
2022/02/27 07:31:00;;;;;;;;;4.00;4.00;;;;;7.20;49.17;101796.97;6289135;22;45596;-87
2022/02/27 07:33:26;;;;;;;;;5.00;5.00;;;;;7.43;49.63;101843.81;6293857;22;47848;-85
2022/02/27 07:35:52;;;;;;;;;5.00;5.00;;;;;7.50;48.74;101835.31;6319257;22;45344;-85
2022/02/27 07:38:17;;;;;;;;;4.67;4.67;;;;;7.44;48.43;101835.94;6317702;22;45319;-87
2022/02/27 07:40:43;;;;;;;;;5.33;5.33;;;;;7.53;48.46;101844.28;6317689;22;45697;-88
2022/02/27 07:43:08;;;;;;;;;2.67;2.67;;;;;7.45;48.01;101843.03;6317269;22;45359;-88
2022/02/27 07:45:37;;;;;;;;;5.00;5.00;;;;;7.55;49.63;101802.00;6315444;22;45317;-88
2022/02/27 07:48:03;;;;;;;;;6.33;4.67;;;;;7.34;48.92;101801.97;6341661;22;45274;-88
2022/02/27 07:50:28;;;;;;;;;5.00;5.00;;;;;7.58;47.82;101836.56;6316335;22;45329;-88
2022/02/27 07:52:54;;;;;;;;;6.00;6.00;;;;;7.67;48.31;101839.59;6316132;22;46999;-87
2022/02/27 07:55:23;;;;;;;;;5.00;4.00;;;;;7.81;48.26;101800.47;6316144;22;45685;-88
2022/02/27 07:57:50;;;;;;;;;4.00;4.00;;;;;8.01;48.92;101849.00;6316160;22;45749;-86
2022/02/27 08:00:15;;;;;;;;;8.33;5.67;;;;;7.81;47.83;101841.09;6320013;22;44726;-87
2022/02/27 08:02:41;;;;;;;;;4.67;4.00;;;;;7.84;46.89;101847.34;6315804;22;46761;-88
2022/02/27 08:05:07;;;;;;;;;4.67;4.67;;;;;7.87;46.93;101836.91;6316682;22;45431;-88
2022/02/27 08:07:32;;;;;;;;;5.33;5.33;;;;;7.88;48.15;101844.03;6315779;22;45344;-86
2022/02/27 08:09:59;;;;;;;;;4.00;4.00;;;;;8.18;48.35;101844.38;6316742;22;45395;-87
2022/02/27 08:12:27;;;;;;;;;4.67;4.67;;;;;8.27;46.27;101855.38;6318051;22;45317;-86
2022/02/27 08:14:53;;;;;;;;;8.33;5.67;;;;;8.09;46.90;101866.13;6317324;22;45577;-86
2022/02/27 08:17:20;;;;;;;;;6.00;6.00;;;;;8.09;46.07;101817.53;6318058;22;45284;-86
2022/02/27 08:19:47;;;;;;;;;6.00;6.00;;;;;8.03;44.86;101834.06;6341746;22;45408;-86
2022/02/27 08:22:15;;;;;;;;;8.00;5.33;;;;;8.13;44.81;101809.75;6315270;22;46626;-86
2022/02/27 08:24:41;;;;;;;;;3.33;3.33;;;;;7.93;46.48;101794.78;6315253;22;45262;-87
2022/02/27 08:27:07;;;;;;;;;5.00;5.00;;;;;8.30;45.22;101844.00;6315502;22;45222;-87
2022/02/27 08:29:33;;;;;;;;;2.00;2.00;;;;;8.28;44.27;101856.28;6315932;22;45269;-87
2022/02/27 08:31:58;;;;;;;;;5.00;5.00;;;;;8.29;45.23;101839.56;6313409;22;46658;-88
2022/02/27 08:34:27;;;;;;;;;4.67;4.00;;;;;8.27;44.20;101838.59;6315261;22;45419;-87
2022/02/27 08:36:55;;;;;;;;;5.00;5.00;;;;;8.55;44.33;101860.09;6314075;22;45309;-87
2022/02/27 08:39:20;;;;;;;;;7.67;6.67;;;;;8.43;44.19;101866.66;6314806;22;45322;-87
2022/02/27 08:41:50;;;;;;;;;6.00;4.33;;;;;8.42;44.60;101807.41;6314996;22;48244;-87
2022/02/27 08:44:16;;;;;;;;;5.00;5.00;;;;;8.51;44.14;101855.50;6315346;22;45684;-87
2022/02/27 08:46:41;;;;;;;;;5.33;5.33;;;;;8.24;43.14;101817.25;6341965;22;45819;-87
2022/02/27 08:49:07;;;;;;;;;5.67;5.00;;;;;8.47;44.10;101840.31;6342390;22;45356;-88
2022/02/27 08:51:33;;;;;;;;;5.33;5.33;;;;;8.57;43.38;101852.22;6319395;22;46327;-87
2022/02/27 08:53:59;;;;;;;;;7.33;5.33;;;;;8.45;42.56;101839.38;6316648;22;45393;-87
2022/02/27 08:56:25;;;;;;;;;5.00;5.00;;;;;8.65;43.97;101855.19;6343283;22;44815;-87
2022/02/27 08:58:51;;;;;;;;;2.00;2.00;;;;;8.70;43.25;101851.84;6315631;22;45636;-87
2022/02/27 09:01:16;;;;;;;;;6.67;5.00;;;;;8.72;43.62;101836.00;6316164;22;45252;-87
2022/02/27 09:03:42;;;;;;;;;4.67;4.00;;;;;8.83;43.13;101863.84;6315772;22;45579;-87
2022/02/27 09:06:11;;;;;;;;;5.00;5.00;;;;;8.72;43.27;101823.63;6342585;22;45262;-87
2022/02/27 09:08:40;;;;;;;;;6.00;6.00;;;;;8.84;42.30;101854.13;6315534;22;45340;-86
2022/02/27 09:11:05;;;;;;;;;6.00;5.00;;;;;8.88;42.28;101861.38;6343186;22;47095;-87
2022/02/27 09:13:31;;;;;;;;;5.67;5.67;;;;;9.07;42.99;101873.59;6319812;22;45110;-87
2022/02/27 09:16:09;;;;;;;;;8.33;4.67;;;;;9.31;42.31;101868.31;6319667;22;45626;-87
2022/02/27 09:18:36;;;;;;;;;5.00;5.00;;;;;8.96;43.31;101846.66;6319557;22;45396;-87
2022/02/27 09:21:08;;;;;;;;;9.00;4.00;;;;;9.22;42.85;101866.22;6319813;22;45655;-87
2022/02/27 09:23:37;;;;;;;;;4.00;4.00;;;;;9.16;41.28;101855.38;6315509;22;45348;-87
2022/02/27 09:26:04;;;;;;;;;4.67;4.67;;;;;9.25;41.33;101874.31;6319027;22;44722;-87
2022/02/27 09:28:30;;;;;;;;;5.00;5.00;;;;;9.23;41.13;101875.06;6320585;22;45408;-87
2022/02/27 09:30:58;;;;;;;;;3.67;2.33;;;;;9.18;42.22;101849.25;6317999;22;46894;-86
2022/02/27 09:33:24;;;;;;;;;5.00;5.00;;;;;9.29;41.57;101872.66;6295577;22;45351;-86
2022/02/27 09:35:53;;;;;;;;;4.33;4.33;;;;;9.50;42.51;101857.53;6319521;22;45806;-87
2022/02/27 09:38:19;;;;;;;;;8.00;5.33;;;;;9.25;41.18;101842.47;6320470;22;45506;-87
2022/02/27 09:40:51;;;;;;;;;3.67;3.67;;;;;9.43;41.31;101806.78;6319445;22;46738;-88
2022/02/27 09:43:19;;;;;;;;;4.00;4.00;;;;;9.69;40.82;101856.41;6318586;22;45278;-88
2022/02/27 09:45:47;;;;;;;;;8.33;5.67;;;;;9.66;40.30;101864.28;6318132;22;45208;-88
2022/02/27 09:48:16;;;;;;;;;4.67;4.67;;;;;9.51;41.57;101845.16;6317935;22;45666;-87
2022/02/27 09:50:42;;;;;;;;;5.00;5.00;;;;;9.37;40.54;101808.41;6318688;22;46631;-87
2022/02/27 09:53:12;;;;;;;;;5.00;5.00;;;;;9.80;40.73;101849.75;6318100;22;45415;-88
2022/02/27 09:55:40;;;;;;;;;5.00;5.00;;;;;9.61;41.38;101847.28;6319892;22;45326;-88
2022/02/27 09:58:08;;;;;;;;;3.50;3.50;;;;;9.64;40.81;101831.47;6317839;22;45304;-87
2022/02/27 10:00:35;;;;;;;;;2.67;2.00;;;;;9.52;40.97;101804.47;6318401;22;45638;-87
2022/02/27 10:03:12;;;;;;;;;6.00;3.33;;;;;10.05;40.06;101849.69;6316408;22;45297;-87
2022/02/27 10:05:40;;;;;;;;;7.33;5.00;;;;;9.75;40.49;101803.50;6320012;22;45441;-87
2022/02/27 10:08:07;;;;;;;;;5.00;5.00;;;;;9.81;41.27;101830.28;6345651;22;45391;-88
2022/02/27 10:10:34;;;;;;;;;5.00;3.67;;;;;10.02;41.73;101853.16;6318369;22;45424;-87
2022/02/27 10:13:01;;;;;;;;;2.67;2.67;;;;;9.89;39.66;101822.56;6321472;22;45273;-87
2022/02/27 10:15:30;;;;;;;;;5.00;5.00;;;;;10.14;40.10;101834.97;6319980;22;45347;-86
2022/02/27 10:17:56;;;;;;;;;1.00;1.00;;;;;10.06;39.57;101846.16;6317825;22;45788;-87
2022/02/27 10:20:25;;;;;;;;;2.00;2.00;;;;;10.39;38.73;101870.38;6290719;22;45445;-87
2022/02/27 10:22:55;;;;;;;;;5.67;5.33;;;;;10.26;38.71;101861.06;6316961;22;45703;-87
2022/02/27 10:25:28;;;;;;;;;4.33;4.33;;;;;10.42;40.43;101838.53;6319598;22;45403;-87
2022/02/27 10:28:03;;;;;;;;;4.33;4.33;;;;;10.64;39.76;101863.16;6292334;22;45281;-87
2022/02/27 10:30:32;;;;;;;;;6.67;6.00;;;;;10.68;40.71;101862.41;6313214;22;46965;-87
2022/02/27 10:33:01;;;;;;;;;7.00;5.67;;;;;10.58;38.78;101848.84;6257245;22;45389;-87
2022/02/27 10:35:45;;;;;;;;;6.00;6.00;;;;;10.86;38.80;101860.31;6284631;22;45254;-87
2022/02/27 10:38:33;;;;;;;;;10.00;8.33;;;;;10.85;39.06;101874.50;6285825;22;45506;-86
2022/02/27 10:47:45;;;;;;;;;4.33;4.33;;;;;10.78;39.98;101840.56;6288367;22;45254;-87
2022/02/27 10:50:28;;;;;;;;;3.00;3.00;;;;;10.77;39.93;101818.38;6258676;22;45511;-86
2022/02/27 10:53:01;;;;;;;;;5.33;5.33;;;;;10.77;39.70;101837.00;6285464;22;46844;-87
2022/02/27 10:55:27;;;;;;;;;4.33;4.33;;;;;10.95;40.13;101855.28;6286798;22;45774;-86
2022/02/27 10:57:56;;;;;;;;;6.00;4.33;;;;;10.96;38.35;101846.44;6258407;22;45407;-86
2022/02/27 11:00:30;;;;;;;;;7.33;6.00;;;;;11.16;40.94;101833.72;6284650;22;46065;-86
2022/02/27 11:02:57;;;;;;;;;2.67;2.67;;;;;11.07;38.83;101848.50;6285673;22;47675;-87
2022/02/27 11:05:31;;;;;;;;;7.00;5.33;;;;;11.33;39.47;101850.22;6261043;22;45286;-86
2022/02/27 11:08:04;;;;;;;;;5.00;5.00;;;;;11.23;37.56;101845.47;6285391;22;45294;-87
2022/02/27 11:10:31;;;;;;;;;5.67;5.67;;;;;11.18;37.45;101869.28;6259288;22;45325;-87
2022/02/27 11:13:24;;;;;;;;;8.33;6.00;;;;;11.28;38.56;101862.47;6286168;22;46716;-87
2022/02/27 11:15:50;;;;;;;;;8.00;7.33;;;;;11.02;37.68;101820.00;6287356;22;45333;-86
2022/02/27 11:18:20;;;;;;;;;6.00;6.00;;;;;11.44;37.75;101853.16;6233232;22;45723;-88
2022/02/27 11:20:47;;;;;;;;;7.67;7.00;;;;;11.13;38.69;101806.09;6259451;22;45341;-87
2022/02/27 11:23:17;;;;;;;;;1.67;0.33;;;;;11.22;38.13;101811.69;6260594;22;47183;-86
2022/02/27 11:25:42;;;;;;;;;7.33;7.33;;;;;11.26;38.29;101829.56;6286414;22;45222;-86
2022/02/27 11:28:18;;;;;;;;;6.00;5.67;;;;;11.49;37.82;101826.66;6286095;22;45338;-87
2022/02/27 11:31:05;;;;;;;;;6.67;5.00;;;;;11.55;37.61;101824.16;6289614;22;45642;-86
2022/02/27 11:33:31;;;;;;;;;6.00;6.00;;;;;11.26;37.01;101818.91;6321181;22;46747;-87
2022/02/27 11:35:59;;;;;;;;;7.00;5.00;;;;;11.33;38.19;101802.28;6318899;22;44937;-87
2022/02/27 11:38:31;;;;;;;;;6.00;6.00;;;;;11.73;38.50;101829.97;6319452;22;45701;-87
2022/02/27 11:41:20;;;;;;;;;7.33;7.33;;;;;11.73;37.66;101824.66;6319210;22;45587;-87
2022/02/27 11:43:51;;;;;;;;;8.67;7.00;;;;;11.56;37.32;101815.31;6318996;22;45445;-87
2022/02/27 11:46:47;;;;;;;;;7.00;7.00;;;;;11.86;38.80;101819.66;6320214;22;45253;-87
2022/02/27 11:49:25;;;;;;;;;9.67;6.67;;;;;11.80;37.21;101820.41;6297568;22;45380;-88
2022/02/27 11:52:01;;;;;;;;;7.00;7.00;;;;;11.88;39.16;101815.28;6323341;22;45220;-88